createdAt,value
2022-08-30T00:01:07.369Z,10.36
2022-08-30T00:02:56.417Z,10.32
2022-08-30T00:04:31.740Z,10.29
2022-08-30T00:06:14.163Z,10.28
2022-08-30T00:07:49.644Z,10.28
2022-08-30T00:10:57.632Z,10.27
2022-08-30T00:14:05.408Z,10.23
2022-08-30T00:15:44.191Z,10.17
2022-08-30T00:17:05.308Z,10.16
2022-08-30T00:18:31.527Z,10.15
2022-08-30T00:19:47.914Z,10.14
2022-08-30T00:21:14.083Z,10.13
2022-08-30T00:22:20.075Z,10.13
2022-08-30T00:23:29.877Z,10.13
2022-08-30T00:24:46.222Z,10.15
2022-08-30T00:25:52.628Z,10.15
2022-08-30T00:26:57.142Z,10.16
2022-08-30T00:28:03.258Z,10.18
2022-08-30T00:29:18.107Z,10.20
2022-08-30T00:30:49.763Z,10.18
2022-08-30T00:31:56.019Z,10.16
2022-08-30T00:33:07.161Z,10.16
2022-08-30T00:34:59.916Z,10.16
2022-08-30T00:36:11.668Z,10.15
2022-08-30T00:37:21.561Z,10.12
2022-08-30T00:38:26.153Z,10.11
2022-08-30T00:39:31.706Z,10.10
2022-08-30T00:40:38.555Z,10.10
2022-08-30T00:41:45.343Z,10.11
2022-08-30T00:42:54.544Z,10.12
2022-08-30T00:44:02.790Z,10.12
2022-08-30T00:45:13.805Z,10.13
2022-08-30T00:46:24.815Z,10.14
2022-08-30T00:48:16.775Z,10.12
2022-08-30T00:49:26.982Z,10.11
2022-08-30T00:50:47.009Z,10.09
2022-08-30T00:52:57.145Z,10.05
2022-08-30T00:54:34.391Z,10.03
2022-08-30T00:56:23.993Z,10.00
2022-08-30T00:59:23.803Z,9.96
2022-08-30T01:09:16.137Z,9.81
2022-08-30T01:10:24.967Z,9.76
2022-08-30T01:13:09.270Z,9.75
2022-08-30T01:14:17.738Z,9.75
2022-08-30T01:15:27.134Z,9.74
2022-08-30T01:17:02.837Z,9.73
2022-08-30T01:18:13.249Z,9.72
2022-08-30T01:22:46.585Z,9.70
2022-08-30T01:26:51.569Z,9.52
2022-08-30T01:29:14.324Z,9.51
2022-08-30T01:44:22.567Z,9.20
2022-08-30T01:46:00.351Z,9.18
2022-08-30T01:50:12.830Z,9.18
2022-08-30T01:50:42.172Z,9.16
2022-08-30T01:51:50.453Z,9.18
2022-08-30T01:53:13.263Z,9.19
2022-08-30T01:55:28.308Z,9.20
2022-08-30T01:57:07.724Z,9.16
2022-08-30T01:58:40.600Z,9.17
2022-08-30T02:00:05.330Z,9.18
2022-08-30T02:03:08.033Z,9.13
2022-08-30T02:04:15.023Z,9.12
2022-08-30T02:05:23.998Z,9.13
2022-08-30T02:06:39.718Z,9.14
2022-08-30T02:08:01.787Z,9.17
2022-08-30T02:09:07.493Z,9.17
2022-08-30T02:10:43.285Z,9.18
2022-08-30T02:12:18.903Z,9.12
2022-08-30T02:13:58.740Z,9.07
2022-08-30T02:15:14.145Z,9.03
2022-08-30T02:16:33.103Z,9.04
2022-08-30T02:17:48.339Z,9.05
2022-08-30T02:18:57.808Z,9.08
2022-08-30T02:20:03.446Z,9.09
2022-08-30T02:21:31.865Z,9.11
2022-08-30T02:23:06.221Z,9.10
2022-08-30T02:24:20.657Z,9.09
2022-08-30T02:25:30.619Z,9.10
2022-08-30T02:26:37.235Z,9.10
2022-08-30T02:27:44.397Z,9.10
2022-08-30T02:29:07.454Z,9.08
2022-08-30T02:30:18.477Z,9.05
2022-08-30T02:31:27.077Z,9.05
2022-08-30T02:32:32.595Z,9.06
2022-08-30T02:33:36.976Z,9.08
2022-08-30T02:34:49.348Z,9.10
2022-08-30T02:35:59.237Z,9.11
2022-08-30T02:40:01.093Z,9.11
2022-08-30T02:41:11.780Z,9.10
2022-08-30T02:44:39.916Z,9.06
2022-08-30T02:50:01.882Z,8.93
2022-08-30T02:51:14.411Z,8.90
2022-08-30T02:52:27.503Z,8.90
2022-08-30T02:53:32.147Z,8.90
2022-08-30T02:54:37.829Z,8.92
2022-08-30T02:55:52.344Z,8.94
2022-08-30T02:56:58.045Z,8.97
2022-08-30T02:58:03.402Z,9.00
2022-08-30T02:59:19.466Z,9.05
2022-08-30T03:00:33.950Z,9.10
2022-08-30T03:01:39.734Z,9.14
2022-08-30T03:02:47.414Z,9.19
2022-08-30T03:03:51.453Z,9.22
2022-08-30T03:04:59.724Z,9.23
2022-08-30T03:06:07.176Z,9.25
2022-08-30T03:07:12.914Z,9.26
2022-08-30T03:08:17.342Z,9.27
2022-08-30T03:09:22.589Z,9.27
2022-08-30T03:10:27.997Z,9.27
2022-08-30T03:11:38.720Z,9.28
2022-08-30T03:12:42.915Z,9.27
2022-08-30T03:13:47.985Z,9.25
2022-08-30T03:14:53.046Z,9.25
2022-08-30T03:15:57.030Z,9.25
2022-08-30T03:17:03.028Z,9.26
2022-08-30T03:18:07.394Z,9.27
2022-08-30T03:19:12.397Z,9.28
2022-08-30T03:20:15.891Z,9.30
2022-08-30T03:21:22.043Z,9.27
2022-08-30T03:22:25.677Z,9.25
2022-08-30T03:23:30.597Z,9.23
2022-08-30T03:24:34.211Z,9.21
2022-08-30T03:25:39.685Z,9.19
2022-08-30T03:26:46.780Z,9.16
2022-08-30T03:27:52.178Z,9.15
2022-08-30T03:28:55.666Z,9.14
2022-08-30T03:30:00.555Z,9.14
2022-08-30T03:31:04.547Z,9.15
2022-08-30T03:32:13.262Z,9.13
2022-08-30T03:33:18.133Z,9.09
2022-08-30T03:34:24.576Z,9.04
2022-08-30T03:35:28.539Z,9.00
2022-08-30T03:36:38.529Z,8.98
2022-08-30T03:37:42.213Z,8.96
2022-08-30T03:38:55.586Z,8.95
2022-08-30T03:40:10.071Z,8.95
2022-08-30T03:41:15.637Z,8.92
2022-08-30T03:42:19.580Z,8.90
2022-08-30T03:43:28.657Z,8.86
2022-08-30T03:44:42.719Z,8.82
2022-08-30T03:45:46.857Z,8.79
2022-08-30T03:46:59.682Z,8.77
2022-08-30T03:48:05.493Z,8.75
2022-08-30T03:49:10.146Z,8.74
2022-08-30T03:50:14.968Z,8.75
2022-08-30T03:51:26.174Z,8.75
2022-08-30T03:52:36.399Z,8.76
2022-08-30T03:53:40.227Z,8.75
2022-08-30T03:54:47.922Z,8.74
2022-08-30T03:55:51.903Z,8.72
2022-08-30T03:56:57.837Z,8.69
2022-08-30T03:58:01.787Z,8.71
2022-08-30T03:59:06.515Z,8.71
2022-08-30T04:00:11.598Z,8.73
2022-08-30T04:01:16.083Z,8.75
2022-08-30T04:02:19.484Z,8.75
2022-08-30T04:03:28.248Z,8.73
2022-08-30T04:04:32.658Z,8.71
2022-08-30T04:05:37.629Z,8.69
2022-08-30T04:06:41.536Z,8.69
2022-08-30T04:07:46.217Z,8.71
2022-08-30T04:08:51.530Z,8.73
2022-08-30T04:09:55.180Z,8.74
2022-08-30T04:11:01.428Z,8.75
2022-08-30T04:12:05.779Z,8.75
2022-08-30T04:13:10.607Z,8.75
2022-08-30T04:14:14.250Z,8.76
2022-08-30T04:15:19.678Z,8.78
2022-08-30T04:16:23.542Z,8.81
2022-08-30T04:17:28.812Z,8.82
2022-08-30T04:18:35.139Z,8.85
2022-08-30T04:19:40.086Z,8.87
2022-08-30T04:20:43.932Z,8.87
2022-08-30T04:21:48.807Z,8.90
2022-08-30T04:23:17.686Z,8.95
2022-08-30T04:24:26.135Z,8.96
2022-08-30T04:25:29.806Z,8.99
2022-08-30T04:26:35.567Z,9.02
2022-08-30T04:27:39.289Z,9.05
2022-08-30T04:28:43.998Z,9.08
2022-08-30T04:29:48.148Z,9.08
2022-08-30T04:30:52.697Z,9.09
2022-08-30T04:31:56.436Z,9.10
2022-08-30T04:33:01.817Z,9.13
2022-08-30T04:34:07.504Z,9.16
2022-08-30T04:35:12.757Z,9.18
2022-08-30T04:36:16.697Z,9.20
2022-08-30T04:37:21.487Z,9.22
2022-08-30T04:38:29.884Z,9.26
2022-08-30T04:39:35.409Z,9.30
2022-08-30T04:40:39.331Z,9.33
2022-08-30T04:41:47.914Z,9.38
2022-08-30T04:43:02.077Z,9.40
2022-08-30T04:44:14.248Z,9.43
2022-08-30T04:45:27.860Z,9.45
2022-08-30T04:46:32.266Z,9.48
2022-08-30T04:47:43.075Z,9.49
2022-08-30T04:49:11.005Z,9.55
2022-08-30T04:50:19.921Z,9.56
2022-08-30T04:51:29.338Z,9.59
2022-08-30T04:52:33.618Z,9.64
2022-08-30T04:53:41.962Z,9.69
2022-08-30T04:54:46.628Z,9.74
2022-08-30T04:55:52.429Z,9.78
2022-08-30T04:56:56.486Z,9.84
2022-08-30T04:58:01.551Z,9.90
2022-08-30T04:59:08.496Z,9.96
2022-08-30T05:00:15.118Z,10.02
2022-08-30T05:01:21.855Z,10.09
2022-08-30T05:02:29.110Z,10.16
2022-08-30T05:03:33.443Z,10.24
2022-08-30T05:05:00.325Z,10.31
2022-08-30T05:06:03.883Z,10.38
2022-08-30T05:07:08.927Z,10.45
2022-08-30T05:08:14.777Z,10.54
2022-08-30T05:09:21.888Z,10.62
2022-08-30T05:10:27.791Z,10.69
2022-08-30T05:11:33.150Z,10.79
2022-08-30T05:12:37.648Z,10.88
2022-08-30T05:13:42.659Z,10.97
2022-08-30T05:14:53.354Z,11.08
2022-08-30T05:15:59.524Z,11.16
2022-08-30T05:17:34.558Z,11.23
2022-08-30T05:18:39.808Z,11.32
2022-08-30T05:19:45.609Z,11.40
2022-08-30T05:21:13.598Z,11.48
2022-08-30T05:22:21.145Z,11.61
2022-08-30T05:23:26.783Z,11.69
2022-08-30T05:24:32.467Z,11.79
2022-08-30T05:25:44.179Z,11.93
2022-08-30T05:26:51.221Z,12.06
2022-08-30T05:27:56.490Z,12.23
2022-08-30T05:29:01.143Z,12.45
2022-08-30T05:30:10.460Z,12.69
2022-08-30T05:31:17.452Z,12.95
2022-08-30T05:32:22.446Z,13.20
2022-08-30T05:33:27.786Z,13.39
2022-08-30T05:34:35.189Z,13.57
2022-08-30T05:35:41.186Z,13.85
2022-08-30T05:36:46.326Z,14.13
2022-08-30T05:37:51.357Z,14.32
2022-08-30T05:38:57.985Z,14.47
2022-08-30T05:40:02.475Z,14.57
2022-08-30T05:41:10.790Z,14.64
2022-08-30T05:42:16.873Z,14.71
2022-08-30T05:43:21.756Z,14.78
2022-08-30T05:44:30.372Z,14.84
2022-08-30T05:45:34.980Z,14.90
2022-08-30T05:46:43.417Z,14.98
2022-08-30T05:47:48.163Z,15.06
2022-08-30T05:48:54.905Z,15.11
2022-08-30T05:49:58.554Z,15.20
2022-08-30T05:51:06.708Z,15.28
2022-08-30T05:52:10.490Z,15.37
2022-08-30T05:53:17.384Z,15.46
2022-08-30T05:54:24.834Z,15.59
2022-08-30T05:55:29.725Z,15.79
2022-08-30T05:56:35.510Z,16.04
2022-08-30T05:57:42.728Z,16.27
2022-08-30T05:58:46.279Z,16.43
2022-08-30T06:02:22.637Z,16.85
2022-08-30T06:03:27.141Z,16.98
2022-08-30T06:04:32.390Z,17.11
2022-08-30T06:07:10.536Z,17.39
2022-08-30T06:08:18.194Z,17.50
2022-08-30T06:09:22.727Z,17.62
2022-08-30T06:10:33.722Z,17.76
2022-08-30T06:11:37.369Z,17.95
2022-08-30T06:12:49.553Z,18.16
2022-08-30T06:13:54.663Z,18.39
2022-08-30T06:14:59.538Z,18.61
2022-08-30T06:16:03.401Z,18.81
2022-08-30T06:17:08.205Z,19.00
2022-08-30T06:18:12.260Z,19.17
2022-08-30T06:19:17.698Z,19.32
2022-08-30T06:20:21.013Z,19.41
2022-08-30T06:21:26.668Z,19.46
2022-08-30T06:22:32.653Z,19.55
2022-08-30T06:23:52.377Z,19.64
2022-08-30T06:24:58.007Z,19.73
2022-08-30T06:26:05.847Z,19.80
2022-08-30T06:27:11.747Z,19.97
2022-08-30T06:28:15.513Z,20.15
2022-08-30T06:29:21.532Z,20.32
2022-08-30T06:30:26.073Z,20.48
2022-08-30T06:31:29.399Z,20.64
2022-08-30T06:32:33.784Z,20.74
2022-08-30T06:33:37.816Z,20.86
2022-08-30T06:34:42.215Z,20.97
2022-08-30T06:35:58.575Z,21.02
2022-08-30T06:37:03.920Z,21.15
2022-08-30T06:38:08.522Z,21.22
2022-08-30T06:39:12.917Z,21.27
2022-08-30T06:40:18.580Z,21.31
2022-08-30T06:41:24.308Z,21.41
2022-08-30T06:42:32.401Z,21.54
2022-08-30T06:43:35.969Z,21.71
2022-08-30T06:44:40.772Z,21.84
2022-08-30T06:45:51.365Z,21.95
2022-08-30T06:46:56.049Z,22.04
2022-08-30T06:47:59.496Z,22.19
2022-08-30T06:49:04.851Z,22.27
2022-08-30T06:50:11.948Z,22.34
2022-08-30T06:51:15.893Z,22.45
2022-08-30T06:52:21.333Z,22.59
2022-08-30T06:53:27.486Z,22.68
2022-08-30T06:54:32.107Z,22.78
2022-08-30T06:55:35.346Z,22.91
2022-08-30T06:56:40.207Z,23.02
2022-08-30T06:57:46.175Z,23.17
2022-08-30T06:58:51.171Z,23.33
2022-08-30T06:59:57.465Z,23.37
2022-08-30T07:01:00.638Z,23.35
2022-08-30T07:02:05.306Z,23.37
2022-08-30T07:03:08.937Z,23.44
2022-08-30T07:04:13.287Z,23.60
2022-08-30T07:05:19.077Z,23.73
2022-08-30T07:06:24.605Z,23.83
2022-08-30T07:07:27.906Z,23.96
2022-08-30T07:08:35.456Z,24.06
2022-08-30T07:09:43.483Z,24.12
2022-08-30T07:10:48.503Z,24.22
2022-08-30T07:11:55.779Z,24.21
2022-08-30T07:12:59.179Z,24.25
2022-08-30T07:14:03.907Z,24.24
2022-08-30T07:15:08.336Z,24.24
2022-08-30T07:16:13.678Z,24.35
2022-08-30T07:17:35.711Z,24.45
2022-08-30T07:18:50.876Z,24.59
2022-08-30T07:19:55.723Z,24.82
2022-08-30T07:20:59.155Z,24.85
2022-08-30T07:22:03.660Z,24.89
2022-08-30T07:23:07.066Z,24.99
2022-08-30T07:24:13.856Z,25.07
2022-08-30T07:25:18.949Z,25.14
2022-08-30T07:26:25.910Z,25.21
2022-08-30T07:27:30.277Z,25.26
2022-08-30T07:28:34.462Z,25.37
2022-08-30T07:29:38.836Z,25.50
2022-08-30T07:30:42.343Z,25.62
2022-08-30T07:31:46.865Z,25.78
2022-08-30T07:32:50.062Z,25.81
2022-08-30T07:33:54.407Z,25.76
2022-08-30T07:34:57.856Z,25.77
2022-08-30T07:36:02.251Z,25.83
2022-08-30T07:37:05.694Z,25.79
2022-08-30T07:38:14.535Z,25.73
2022-08-30T07:39:20.574Z,25.70
2022-08-30T07:40:23.998Z,25.79
2022-08-30T07:41:30.628Z,25.91
2022-08-30T07:42:33.902Z,26.06
2022-08-30T07:43:38.617Z,26.17
2022-08-30T07:44:42.845Z,26.15
2022-08-30T07:45:46.055Z,26.15
2022-08-30T07:46:50.592Z,26.09
2022-08-30T07:47:53.707Z,26.09
2022-08-30T07:48:57.814Z,26.11
2022-08-30T07:50:01.467Z,26.02
2022-08-30T07:51:06.505Z,25.98
2022-08-30T07:52:09.715Z,26.06
2022-08-30T07:53:14.127Z,26.16
2022-08-30T07:54:18.767Z,26.32
2022-08-30T07:55:23.148Z,26.54
2022-08-30T07:56:26.721Z,26.84
2022-08-30T07:57:33.779Z,27.01
2022-08-30T07:58:38.516Z,27.17
2022-08-30T07:59:42.779Z,27.15
2022-08-30T08:00:46.007Z,27.13
2022-08-30T08:01:50.239Z,27.30
2022-08-30T08:02:55.494Z,27.35
2022-08-30T08:03:59.742Z,27.32
2022-08-30T08:05:02.973Z,27.20
2022-08-30T08:06:08.323Z,27.08
2022-08-30T08:07:11.788Z,26.85
2022-08-30T08:08:16.265Z,26.66
2022-08-30T08:09:20.867Z,26.54
2022-08-30T08:10:25.035Z,26.51
2022-08-30T08:11:33.464Z,26.33
2022-08-30T08:12:36.965Z,26.07
2022-08-30T08:13:53.779Z,25.80
2022-08-30T08:14:58.655Z,25.65
2022-08-30T08:16:01.859Z,25.68
2022-08-30T08:17:06.347Z,25.68
2022-08-30T08:18:10.737Z,25.85
2022-08-30T08:19:14.968Z,26.01
2022-08-30T08:20:18.183Z,26.15
2022-08-30T08:21:22.624Z,26.30
2022-08-30T08:22:25.987Z,26.46
2022-08-30T08:23:30.819Z,26.72
2022-08-30T08:24:36.710Z,26.85
2022-08-30T08:25:42.135Z,26.86
2022-08-30T08:26:46.308Z,26.83
2022-08-30T08:27:51.015Z,26.98
2022-08-30T08:28:55.268Z,27.20
2022-08-30T08:29:58.379Z,27.21
2022-08-30T08:31:02.662Z,27.06
2022-08-30T08:32:06.039Z,26.91
2022-08-30T08:33:10.864Z,26.73
2022-08-30T08:34:15.421Z,26.51
2022-08-30T08:35:18.747Z,26.47
2022-08-30T08:36:22.787Z,26.57
2022-08-30T08:37:28.158Z,26.81
2022-08-30T08:38:31.300Z,27.10
2022-08-30T08:39:37.321Z,27.55
2022-08-30T08:40:47.438Z,27.87
2022-08-30T08:41:56.197Z,27.87
2022-08-30T08:43:03.904Z,27.83
2022-08-30T08:44:12.528Z,27.92
2022-08-30T08:45:21.652Z,27.93
2022-08-30T08:46:32.856Z,27.67
2022-08-30T08:47:39.427Z,27.37
2022-08-30T08:48:59.909Z,27.06
2022-08-30T08:50:08.797Z,26.65
2022-08-30T08:51:32.029Z,26.46
2022-08-30T08:52:58.636Z,26.63
2022-08-30T08:54:06.629Z,27.02
2022-08-30T08:55:15.590Z,27.34
2022-08-30T08:56:19.962Z,27.70
2022-08-30T08:57:24.873Z,28.10
2022-08-30T08:58:30.707Z,28.47
2022-08-30T08:59:35.333Z,28.78
2022-08-30T09:00:38.902Z,28.74
2022-08-30T09:01:43.202Z,28.50
2022-08-30T09:02:50.628Z,28.13
2022-08-30T09:03:57.886Z,27.81
2022-08-30T09:05:04.243Z,27.59
2022-08-30T09:06:28.068Z,27.60
2022-08-30T09:07:34.842Z,27.71
2022-08-30T09:08:37.996Z,27.68
2022-08-30T09:09:42.788Z,27.87
2022-08-30T09:10:52.534Z,28.28
2022-08-30T09:11:56.605Z,28.58
2022-08-30T09:13:00.832Z,28.80
2022-08-30T09:14:11.954Z,29.13
2022-08-30T09:15:20.206Z,29.31
2022-08-30T09:16:46.966Z,29.24
2022-08-30T09:17:54.837Z,28.98
2022-08-30T09:18:57.815Z,28.70
2022-08-30T09:20:02.781Z,28.47
2022-08-30T09:21:07.246Z,28.24
2022-08-30T09:22:22.865Z,28.26
2022-08-30T09:23:32.657Z,28.37
2022-08-30T09:24:40.705Z,28.42
2022-08-30T09:25:53.577Z,28.51
2022-08-30T09:26:56.696Z,28.58
2022-08-30T09:28:11.655Z,28.53
2022-08-30T09:29:17.797Z,28.66
2022-08-30T09:30:25.913Z,28.94
2022-08-30T09:31:32.721Z,29.22
2022-08-30T09:32:40.448Z,29.28
2022-08-30T09:33:55.757Z,29.37
2022-08-30T09:35:00.468Z,29.28
2022-08-30T09:36:14.536Z,29.09
2022-08-30T09:37:27.119Z,28.75
2022-08-30T09:38:34.418Z,28.37
2022-08-30T09:39:38.313Z,28.02
2022-08-30T09:40:44.070Z,27.72
2022-08-30T09:41:50.597Z,27.58
2022-08-30T09:43:02.829Z,27.62
2022-08-30T09:44:12.706Z,27.58
2022-08-30T09:45:20.615Z,27.78
2022-08-30T09:46:26.176Z,28.10
2022-08-30T09:47:31.904Z,28.48
2022-08-30T09:48:38.335Z,28.79
2022-08-30T09:49:44.896Z,29.03
2022-08-30T09:50:50.257Z,29.16
2022-08-30T09:52:12.515Z,28.92
2022-08-30T09:53:23.472Z,28.50
2022-08-30T09:54:34.942Z,28.01
2022-08-30T09:55:51.826Z,27.60
2022-08-30T09:57:11.626Z,27.27
2022-08-30T09:58:31.349Z,26.99
2022-08-30T09:59:40.625Z,26.82
2022-08-30T10:00:49.353Z,26.63
2022-08-30T10:01:57.212Z,26.45
2022-08-30T10:03:35.318Z,26.39
2022-08-30T10:04:44.855Z,26.60
2022-08-30T10:05:57.974Z,26.72
2022-08-30T10:07:06.538Z,26.84
2022-08-30T10:08:14.744Z,27.18
2022-08-30T10:09:24.927Z,27.60
2022-08-30T10:10:32.301Z,28.07
2022-08-30T10:11:44.039Z,28.50
2022-08-30T10:12:56.734Z,28.94
2022-08-30T10:14:36.847Z,29.26
2022-08-30T10:15:43.265Z,29.44
2022-08-30T10:16:51.715Z,29.55
2022-08-30T10:18:02.974Z,29.53
2022-08-30T10:19:15.624Z,29.61
2022-08-30T10:20:23.606Z,29.70
2022-08-30T10:21:34.006Z,29.89
2022-08-30T10:22:41.850Z,30.05
2022-08-30T10:23:47.983Z,30.18
2022-08-30T10:24:57.053Z,30.38
2022-08-30T10:26:12.530Z,30.66
2022-08-30T10:27:20.147Z,30.83
2022-08-30T10:28:31.506Z,30.78
2022-08-30T10:29:42.295Z,30.76
2022-08-30T10:30:51.776Z,30.80
2022-08-30T10:31:59.016Z,30.82
2022-08-30T10:33:07.773Z,30.95
2022-08-30T10:34:15.059Z,30.80
2022-08-30T10:35:22.615Z,30.40
2022-08-30T10:36:31.461Z,30.03
2022-08-30T10:37:39.537Z,29.68
2022-08-30T10:38:48.086Z,29.37
2022-08-30T10:39:53.065Z,29.01
2022-08-30T10:41:13.719Z,28.65
2022-08-30T10:42:22.899Z,28.23
2022-08-30T10:43:39.300Z,27.99
2022-08-30T10:44:47.027Z,28.08
2022-08-30T10:45:51.726Z,28.08
2022-08-30T10:47:08.517Z,28.06
2022-08-30T10:48:19.308Z,28.17
2022-08-30T10:49:27.105Z,28.32
2022-08-30T10:50:38.452Z,28.46
2022-08-30T10:51:49.706Z,28.68
2022-08-30T10:52:58.547Z,28.73
2022-08-30T10:54:11.396Z,28.74
2022-08-30T10:55:22.503Z,28.78
2022-08-30T10:56:29.658Z,28.94
2022-08-30T10:57:33.788Z,29.03
2022-08-30T10:58:40.273Z,29.08
2022-08-30T10:59:48.365Z,29.17
2022-08-30T11:01:04.318Z,29.26
2022-08-30T11:02:24.949Z,29.28
2022-08-30T11:03:50.467Z,29.40
2022-08-30T11:05:13.847Z,29.46
2022-08-30T11:06:23.928Z,29.51
2022-08-30T11:07:36.016Z,29.55
2022-08-30T11:09:16.820Z,29.67
2022-08-30T11:10:28.421Z,29.80
2022-08-30T11:11:44.386Z,30.05
2022-08-30T11:12:55.763Z,30.30
2022-08-30T11:14:05.421Z,30.43
2022-08-30T11:15:19.901Z,30.50
2022-08-30T11:16:36.616Z,30.66
2022-08-30T11:17:46.047Z,30.77
2022-08-30T11:18:52.083Z,30.93
2022-08-30T11:19:57.495Z,31.01
2022-08-30T11:21:28.377Z,31.24
2022-08-30T11:22:39.261Z,31.53
2022-08-30T11:23:42.757Z,31.73
2022-08-30T11:25:13.316Z,31.83
2022-08-30T11:26:52.689Z,31.79
2022-08-30T11:27:58.686Z,31.85
2022-08-30T11:29:09.045Z,31.86
2022-08-30T11:30:52.417Z,32.04
2022-08-30T11:31:56.351Z,32.27
2022-08-30T11:33:02.296Z,32.37
2022-08-30T11:34:06.469Z,32.56
2022-08-30T11:39:03.813Z,33.04
2022-08-30T11:40:14.255Z,32.78
2022-08-30T11:41:32.505Z,32.16
2022-08-30T11:42:42.866Z,31.54
2022-08-30T11:43:57.360Z,30.80
2022-08-30T11:45:38.795Z,30.14
2022-08-30T11:46:45.532Z,30.01
2022-08-30T11:47:51.156Z,30.21
2022-08-30T11:48:56.954Z,30.58
2022-08-30T11:50:09.885Z,30.98
2022-08-30T11:51:43.631Z,31.38
2022-08-30T11:52:53.328Z,31.70
2022-08-30T11:54:01.937Z,31.83
2022-08-30T11:55:42.354Z,32.14
2022-08-30T11:56:55.784Z,32.47
2022-08-30T11:58:11.553Z,32.68
2022-08-30T11:59:26.735Z,32.76
2022-08-30T12:00:35.015Z,32.78
2022-08-30T12:01:51.007Z,32.79
2022-08-30T12:03:00.358Z,32.87
2022-08-30T12:04:07.038Z,32.99
2022-08-30T12:05:51.647Z,33.14
2022-08-30T12:07:00.031Z,33.29
2022-08-30T12:08:05.020Z,33.61
2022-08-30T12:09:10.925Z,33.76
2022-08-30T12:10:24.805Z,33.91
2022-08-30T12:12:05.199Z,33.82
2022-08-30T12:13:09.965Z,33.89
2022-08-30T12:14:47.851Z,33.98
2022-08-30T12:16:00.995Z,33.94
2022-08-30T12:17:30.126Z,34.01
2022-08-30T12:18:46.333Z,34.04
2022-08-30T12:19:50.684Z,34.00
2022-08-30T12:20:55.372Z,33.94
2022-08-30T12:22:01.501Z,33.89
2022-08-30T12:23:19.816Z,33.82
2022-08-30T12:24:27.947Z,33.68
2022-08-30T12:25:34.107Z,33.34
2022-08-30T12:26:41.200Z,32.83
2022-08-30T12:27:44.995Z,32.32
2022-08-30T12:28:51.306Z,31.98
2022-08-30T12:29:56.774Z,31.65
2022-08-30T12:31:10.030Z,31.27
2022-08-30T12:32:19.465Z,30.95
2022-08-30T12:33:29.338Z,30.60
2022-08-30T12:34:39.166Z,30.41
2022-08-30T12:35:43.626Z,30.52
2022-08-30T12:36:53.946Z,30.84
2022-08-30T12:38:00.267Z,31.22
2022-08-30T12:39:13.723Z,31.57
2022-08-30T12:40:21.170Z,31.74
2022-08-30T12:41:27.397Z,31.89
2022-08-30T12:42:33.379Z,31.96
2022-08-30T12:43:41.598Z,32.02
2022-08-30T12:44:45.539Z,32.10
2022-08-30T12:45:51.407Z,32.12
2022-08-30T12:46:59.783Z,32.21
2022-08-30T12:48:06.096Z,32.37
2022-08-30T12:49:11.617Z,32.56
2022-08-30T12:50:20.083Z,32.77
2022-08-30T12:51:38.309Z,33.05
2022-08-30T12:52:45.537Z,33.28
2022-08-30T12:53:51.340Z,33.59
2022-08-30T12:54:56.821Z,33.88
2022-08-30T12:56:02.581Z,34.05
2022-08-30T12:57:25.658Z,34.05
2022-08-30T12:58:37.935Z,33.96
2022-08-30T12:59:59.206Z,33.88
2022-08-30T13:01:18.552Z,33.74
2022-08-30T13:02:23.558Z,33.69
2022-08-30T13:03:34.268Z,33.68
2022-08-30T13:04:37.599Z,33.71
2022-08-30T13:05:52.818Z,33.74
2022-08-30T13:06:58.687Z,33.72
2022-08-30T13:08:27.777Z,33.82
2022-08-30T13:09:34.177Z,33.75
2022-08-30T13:10:38.925Z,33.83
2022-08-30T13:11:49.014Z,34.04
2022-08-30T13:13:02.125Z,34.21
2022-08-30T13:14:36.846Z,34.44
2022-08-30T13:15:42.821Z,34.45
2022-08-30T13:16:47.182Z,34.45
2022-08-30T13:18:13.386Z,34.31
2022-08-30T13:19:32.826Z,34.42
2022-08-30T13:20:35.975Z,34.39
2022-08-30T13:21:49.221Z,34.34
2022-08-30T13:23:06.175Z,34.24
2022-08-30T13:24:10.275Z,34.06
2022-08-30T13:25:13.382Z,33.84
2022-08-30T13:26:23.198Z,33.71
2022-08-30T13:27:27.478Z,33.75
2022-08-30T13:28:31.582Z,33.76
2022-08-30T13:29:35.877Z,33.76
2022-08-30T13:30:39.967Z,33.76
2022-08-30T13:31:44.145Z,33.71
2022-08-30T13:32:47.235Z,33.51
2022-08-30T13:33:53.345Z,33.23
2022-08-30T13:34:57.385Z,33.00
2022-08-30T13:36:00.836Z,32.88
2022-08-30T13:37:44.242Z,32.84
2022-08-30T13:38:32.024Z,32.70
2022-08-30T13:39:35.243Z,32.56
2022-08-30T13:40:41.369Z,32.39
2022-08-30T13:41:46.073Z,32.09
2022-08-30T13:42:50.513Z,31.73
2022-08-30T13:44:11.432Z,31.37
2022-08-30T13:46:53.345Z,30.42
2022-08-30T13:47:58.667Z,29.95
2022-08-30T13:49:04.987Z,29.60
2022-08-30T13:50:10.045Z,29.27
2022-08-30T13:51:13.416Z,28.98
2022-08-30T13:52:22.915Z,28.93
2022-08-30T13:54:51.274Z,28.75
2022-08-30T13:55:54.551Z,28.63
2022-08-30T13:56:58.921Z,28.42
2022-08-30T13:58:03.300Z,28.48
2022-08-30T13:59:06.656Z,28.81
2022-08-30T14:00:18.052Z,29.26
2022-08-30T14:01:21.802Z,29.68
2022-08-30T14:02:26.179Z,30.15
2022-08-30T14:03:31.454Z,30.58
2022-08-30T14:04:35.048Z,30.97
2022-08-30T14:05:50.110Z,31.27
2022-08-30T14:09:47.767Z,32.65
2022-08-30T14:10:51.946Z,33.04
2022-08-30T14:11:54.996Z,33.35
2022-08-30T14:13:07.926Z,33.54
2022-08-30T14:14:22.327Z,33.71
2022-08-30T14:15:35.378Z,33.63
2022-08-30T14:16:45.111Z,33.34
2022-08-30T14:17:48.450Z,33.11
2022-08-30T14:18:52.595Z,33.00
2022-08-30T14:19:56.862Z,32.97
2022-08-30T14:21:00.535Z,32.96
2022-08-30T14:22:04.746Z,32.99
2022-08-30T14:23:10.143Z,33.02
2022-08-30T14:24:16.085Z,33.09
2022-08-30T14:25:23.253Z,33.28
2022-08-30T14:26:32.808Z,33.49
2022-08-30T14:27:37.705Z,33.74
2022-08-30T14:28:42.224Z,33.94
2022-08-30T14:29:47.277Z,34.04
2022-08-30T14:30:50.544Z,34.06
2022-08-30T14:31:54.967Z,34.16
2022-08-30T14:32:58.094Z,34.15
2022-08-30T14:34:04.245Z,33.99
2022-08-30T14:35:10.096Z,33.88
2022-08-30T14:36:15.852Z,33.83
2022-08-30T14:37:20.306Z,33.80
2022-08-30T14:38:23.312Z,33.61
2022-08-30T14:39:29.089Z,33.41
2022-08-30T14:40:32.257Z,33.16
2022-08-30T14:41:40.116Z,32.94
2022-08-30T14:42:47.377Z,32.74
2022-08-30T14:43:51.453Z,32.71
2022-08-30T14:44:56.804Z,32.69
2022-08-30T14:46:00.230Z,32.73
2022-08-30T14:47:04.615Z,32.79
2022-08-30T14:48:11.707Z,32.87
2022-08-30T14:49:20.057Z,32.75
2022-08-30T14:50:23.266Z,32.51
2022-08-30T14:51:27.297Z,32.19
2022-08-30T14:52:31.914Z,31.95
2022-08-30T14:53:36.203Z,31.89
2022-08-30T14:54:42.417Z,31.93
2022-08-30T14:55:45.566Z,31.88
2022-08-30T14:56:49.797Z,31.82
2022-08-30T14:57:53.005Z,31.80
2022-08-30T14:59:00.784Z,31.81
2022-08-30T15:00:07.441Z,31.80
2022-08-30T15:01:12.515Z,31.76
2022-08-30T15:02:16.838Z,31.59
2022-08-30T15:03:20.026Z,31.46
2022-08-30T15:04:24.267Z,31.33
2022-08-30T15:05:28.411Z,31.12
2022-08-30T15:06:32.933Z,30.85
2022-08-30T15:07:36.269Z,30.47
2022-08-30T15:08:40.983Z,30.13
2022-08-30T15:09:46.611Z,29.98
2022-08-30T15:10:49.664Z,29.92
2022-08-30T15:11:58.777Z,29.92
2022-08-30T15:13:05.085Z,29.79
2022-08-30T15:14:12.847Z,29.52
2022-08-30T15:15:21.697Z,29.19
2022-08-30T15:16:28.252Z,28.95
2022-08-30T15:17:31.420Z,28.68
2022-08-30T15:18:35.945Z,28.40
2022-08-30T15:19:40.847Z,28.10
2022-08-30T15:20:48.034Z,27.82
2022-08-30T15:21:52.832Z,27.58
2022-08-30T15:22:55.906Z,27.33
2022-08-30T15:24:01.912Z,27.15
2022-08-30T15:25:07.593Z,26.98
2022-08-30T15:26:13.765Z,26.97
2022-08-30T15:27:17.996Z,27.12
2022-08-30T15:28:21.274Z,27.21
2022-08-30T15:29:25.418Z,27.31
2022-08-30T15:30:28.425Z,27.34
2022-08-30T15:31:33.061Z,27.39
2022-08-30T15:32:36.828Z,27.47
2022-08-30T15:33:41.427Z,27.53
2022-08-30T15:34:55.990Z,27.45
2022-08-30T15:36:02.268Z,27.33
2022-08-30T15:37:09.234Z,27.20
2022-08-30T15:38:14.666Z,27.11
2022-08-30T15:39:21.316Z,27.01
2022-08-30T15:40:30.080Z,26.91
2022-08-30T15:41:33.277Z,26.80
2022-08-30T15:42:42.322Z,26.68
2022-08-30T15:43:46.747Z,26.58
2022-08-30T15:44:51.551Z,26.48
2022-08-30T15:45:56.707Z,26.37
2022-08-30T15:47:01.270Z,26.26
2022-08-30T15:48:04.828Z,26.18
2022-08-30T15:49:10.717Z,26.16
2022-08-30T15:50:14.896Z,26.13
2022-08-30T15:51:18.645Z,26.08
2022-08-30T15:52:22.816Z,26.02
2022-08-30T15:53:25.795Z,25.97
2022-08-30T15:54:29.907Z,25.92
2022-08-30T15:55:34.459Z,26.00
2022-08-30T15:56:38.968Z,26.18
2022-08-30T15:57:42.117Z,26.40
2022-08-30T15:58:48.468Z,26.61
2022-08-30T15:59:54.640Z,26.75
2022-08-30T16:00:57.942Z,26.85
2022-08-30T16:02:02.200Z,26.93
2022-08-30T16:03:06.267Z,27.00